• Join FlightAware (Why Join?)
  • Login
  • US Flag 
04:08AM EDT


 

Airport Tracker/Info


-or-


 

Live Flight TrackerFlight Track Log ✈ UAL1197 ✈ 04-Jun-2013 ✈ KLAX - KEWR

Flight Track Log - Related Links

Times and Time Zones

All times are in EDT time to prevent confusion due to time zone crossing. See the UAL1197 flight status page for this flight to view local times or setup timezone preferences in your user account.

Time Position Orientation Groundspeed Altitude Reporting Facility
EDT Latitude Longitude Course Direction KTS MPH feet Rate Location/Type
10:19AM 33.9300 -118.4690 255° West 216 249 2,000  Level FlightAware
10:19AM 33.9200 -118.5040 251° West 239 275 3,100 2,700 Climbing FlightAware
10:20AM 33.9080 -118.5420 249° West 252 290 4,500 3,240 Climbing FlightAware
10:20AM 33.8930 -118.5680 235° Southwest 242 278 5,800 3,360 Climbing FlightAware
10:20AM 33.8470 -118.5680 180° South 246 283 7,700 3,240 Climbing FlightAware
10:21AM 33.8380 -118.5590 140° Southeast 252 290 8,100 2,340 Climbing FlightAware
10:21AM 33.8300 -118.5360 113° Southeast 261 300 8,800 2,220 Climbing FlightAware
10:21AM 33.8340 -118.5160 76° East 268 308 9,300 2,340 Climbing FlightAware
10:21AM 33.8440 -118.5000 53° Northeast 271 312 9,900 2,040 Climbing FlightAware
10:22AM 33.8930 -118.4620 33° Northeast 300 345 11,300 1,740 Climbing FlightAware
10:23AM 33.9390 -118.4200 37° Northeast 331 381 12,400 1,620 Climbing FlightAware
10:24AM 33.9800 -118.3510 54° Northeast 360 414 13,600 1,800 Climbing FlightAware
10:24AM 34.0170 -118.2860 56° Northeast 372 428 14,900 2,160 Climbing FlightAware
10:25AM 34.0600 -118.2100 56° Northeast 380 437 16,600 2,040 Climbing FlightAware
10:26AM 34.1080 -118.1340 53° Northeast 399 459 17,900 1,500 Climbing FlightAware
10:26AM 34.1570 -118.0640 50° Northeast 425 489 18,700 1,380 Climbing FlightAware
10:27AM 34.2000 -118.0010 50° Northeast 433 498 19,800 2,040 Climbing FlightAware
10:28AM 34.2660 -117.9040 51° Northeast 436 502 21,700 1,980 Climbing FlightAware
10:28AM 34.3210 -117.8250 50° Northeast 446 513 22,700 1,440 Climbing FlightAware
10:29AM 34.3750 -117.7470 50° Northeast 456 525 23,700 1,500 Climbing FlightAware
10:30AM 34.4320 -117.6630 51° Northeast 462 532 24,800 900 Climbing FlightAware
10:30AM 34.4880 -117.5800 51° Northeast 464 534 25,000 120 Climbing FlightAware
10:31AM 34.5490 -117.4910 50° Northeast 463 533 25,000 360 Level FlightAware
10:32AM 34.5980 -117.4190 50° Northeast 461 531 25,500 900 Climbing FlightAware
10:33AM 34.6620 -117.3240 51° Northeast 472 543 26,300 1,080 Climbing FlightAware
10:33AM 34.7120 -117.2490 51° Northeast 479 551 27,000 1,080 Climbing FlightAware
10:34AM 34.7730 -117.1590 50° Northeast 484 557 27,800 1,320 Climbing FlightAware
10:35AM 34.8390 -117.0610 51° Northeast 482 555 29,000 960 Climbing FlightAware
10:36AM 34.9010 -116.9700 50° Northeast 482 555 29,400 240 Climbing FlightAware
10:36AM 34.9580 -116.8870 50° Northeast 482 555 29,400  Level FlightAware
10:37AM 35.0030 -116.8210 50° Northeast 482 555 29,400 2,040 Level FlightAware
10:38AM 35.0940 -116.6790 52° Northeast 490 564 32,300 2,160 Climbing FlightAware
10:38AM 35.1430 -116.6050 51° Northeast 490 564 32,600 180 Climbing FlightAware
10:39AM 35.1990 -116.5200 51° Northeast 490 564 32,600 1,140 Level FlightAware
10:40AM 35.2850 -116.3880 51° Northeast 477 549 34,600 1,800 Climbing FlightAware
10:41AM 35.3470 -116.2950 51° Northeast 478 550 35,500 1,020 Climbing FlightAware
10:41AM 35.4090 -116.2000 51° Northeast 478 550 36,000 600 Climbing FlightAware
10:42AM 35.4860 -116.0820 51° Northeast 483 556 36,500 300 Climbing FlightAware
10:43AM 35.5380 -116.0030 51° Northeast 483 556 36,500  Level FlightAware
10:44AM 35.5910 -115.9230 51° Northeast 483 556 36,500 360 Level FlightAware
10:44AM 35.6520 -115.8280 52° Northeast 488 562 37,000 300 Climbing FlightAware
10:45AM 35.7420 -115.6890 51° Northeast 486 559 37,000  Level FlightAware
10:46AM 35.7980 -115.6010 52° Northeast 486 559 37,000  Level FlightAware
10:47AM 35.8580 -115.5070 52° Northeast 484 557 37,000  Level FlightAware
10:47AM 35.9110 -115.4240 52° Northeast 482 555 37,000  Level FlightAware
10:48AM 35.9730 -115.3270 52° Northeast 481 554 37,000  Level FlightAware
10:49AM 36.0360 -115.2290 51° Northeast 480 552 37,000  Level FlightAware
10:50AM 36.0860 -115.1340 57° Northeast 478 550 37,000  Level FlightAware
10:50AM 36.1180 -115.0370 68° East 476 548 37,000  Level FlightAware
10:51AM 36.1500 -114.9330 69° East 476 548 37,000  Level FlightAware
10:52AM 36.1840 -114.8220 69° East 478 550 37,000  Level FlightAware
10:52AM 36.2190 -114.7070 69° East 482 555 37,000  Level FlightAware
10:53AM 36.2450 -114.6200 70° East 482 555 37,000  Level FlightAware
10:54AM 36.2840 -114.4950 69° East 484 557 37,000  Level FlightAware
10:54AM 36.3150 -114.3930 69° East 484 557 37,000  Level FlightAware
10:55AM 36.3590 -114.2470 69° East 486 559 37,000  Level FlightAware
10:56AM 36.3940 -114.1300 70° East 485 558 37,000  Level FlightAware
10:57AM 36.4280 -114.0160 70° East 486 559 37,000  Level FlightAware
10:58AM 36.4570 -113.9170 70° East 484 557 37,000  Level FlightAware
10:58AM 36.4900 -113.8070 70° East 481 554 37,000  Level FlightAware
10:59AM 36.5230 -113.6950 70° East 481 554 37,000  Level FlightAware
11:00AM 36.5510 -113.6010 70° East 479 551 37,000  Level FlightAware
11:00AM 36.5860 -113.4800 70° East 479 551 37,000  Level FlightAware
11:01AM 36.6100 -113.4000 69° East 479 551 37,000  Level FlightAware
11:02AM 36.6420 -113.2900 70° East 480 552 37,000  Level FlightAware
11:02AM 36.6710 -113.1880 70° East 480 552 37,000  Level FlightAware
11:03AM 36.7010 -113.0860 70° East 481 554 37,000  Level FlightAware
11:04AM 36.7340 -112.9680 71° East 483 556 37,000  Level FlightAware
11:04AM 36.7670 -112.8540 70° East 485 558 37,000  Level FlightAware
11:05AM 36.7860 -112.7890 70° East 486 559 37,000  Level FlightAware
11:06AM 36.8190 -112.6710 71° East 488 562 37,000  Level FlightAware
11:06AM 36.8460 -112.5760 70° East 489 563 37,000  Level FlightAware
11:07AM 36.8820 -112.4510 70° East 490 564 37,000  Level FlightAware
11:07AM 36.9030 -112.3750 71° East 491 565 37,000  Level FlightAware
11:08AM 36.9430 -112.2330 71° East 489 563 37,000  Level FlightAware
11:09AM 36.9760 -112.1140 71° East 487 560 37,000  Level FlightAware
11:10AM 37.0050 -112.0090 71° East 487 560 37,000  Level FlightAware
11:10AM 37.0420 -111.8750 71° East 487 560 37,000  Level FlightAware
11:11AM 37.0610 -111.8040 71° East 487 560 37,000  Level FlightAware
11:12AM 37.1030 -111.6530 71° East 487 560 37,000  Level FlightAware
11:13AM 37.1370 -111.5300 71° East 486 559 37,000  Level FlightAware
11:13AM 37.1650 -111.4230 72° East 486 559 37,000  Level FlightAware
11:14AM 37.1930 -111.3230 71° East 485 558 37,000  Level FlightAware
11:15AM 37.2510 -111.1060 71° East 485 558 37,000  Level FlightAware
11:16AM 37.2660 -111.0520 71° East 485 558 37,000  Level FlightAware
11:16AM 37.2900 -110.9660 71° East 485 558 37,000  Level FlightAware
11:17AM 37.3200 -110.8570 71° East 485 558 37,000  Level FlightAware
11:18AM 37.3420 -110.7750 71° East 485 558 37,000  Level FlightAware
11:19AM 37.3720 -110.6660 71° East 485 558 37,000  Level FlightAware
11:19AM 37.3950 -110.5820 71° East 485 558 37,000  Level FlightAware
11:20AM 37.4350 -110.4370 71° East 485 558 37,000  Level FlightAware
11:21AM 37.4580 -110.3530 71° East 485 558 37,000  Level FlightAware
11:22AM 37.5190 -110.0840 74° East 483 556 37,000  Level FlightAware
11:22AM 37.5470 -109.9770 72° East 482 555 37,000  Level FlightAware
11:23AM 37.5780 -109.8520 73° East 482 555 37,000  Level FlightAware
11:24AM 37.6090 -109.7310 72° East 485 558 37,000  Level FlightAware
11:25AM 37.6340 -109.6310 72° East 486 559 37,000  Level FlightAware
11:25AM 37.6530 -109.5580 72° East 486 559 37,000  Level FlightAware
11:26AM 37.6910 -109.4060 72° East 488 562 37,000  Level FlightAware
11:27AM 37.7180 -109.2990 72° East 488 562 37,000  Level FlightAware
11:27AM 37.7450 -109.1880 73° East 488 562 37,000  Level FlightAware
11:28AM 37.7760 -109.0630 73° East 487 560 37,000  Level FlightAware
11:29AM 37.8010 -108.9630 72° East 487 560 37,000  Level FlightAware
11:29AM 37.8420 -108.8360 68° East 489 563 37,000  Level FlightAware
11:30AM 37.8920 -108.6940 66° East 491 565 37,000  Level FlightAware
11:31AM 37.9260 -108.5940 67° East 492 566 37,000  Level FlightAware
11:32AM 37.9800 -108.4410 66° East 492 566 37,000  Level FlightAware
11:33AM 38.0190 -108.3400 64° Northeast 490 564 37,000  Level FlightAware
11:34AM 38.1230 -108.1870 49° Northeast 488 562 37,000  Level FlightAware
11:35AM 38.1860 -108.0980 48° Northeast 488 562 37,000  Level FlightAware
11:35AM 38.2590 -107.9930 48° Northeast 487 560 37,000  Level FlightAware
11:36AM 38.3140 -107.9140 48° Northeast 488 562 37,000  Level FlightAware
11:37AM 38.3780 -107.8230 48° Northeast 487 560 37,000  Level FlightAware
11:37AM 38.4410 -107.7190 52° Northeast 492 566 37,000  Level FlightAware
11:38AM 38.4800 -107.6140 65° Northeast 492 566 37,000  Level FlightAware
11:39AM 38.5360 -107.4620 65° Northeast 493 567 37,000  Level FlightAware
11:39AM 38.5502 -107.4230 65° Northeast 494 568 37,000  Level FlightAware ADS-B
11:40AM 38.5798 -107.3420 65° Northeast 494 568 37,000  Level FlightAware ADS-B
11:40AM 38.6100 -107.2560 66° East 495 570 37,000  Level FlightAware
11:41AM 38.6564 -107.1290 65° Northeast 495 570 37,000  Level FlightAware ADS-B
11:42AM 38.6857 -107.0470 65° Northeast 497 572 37,000  Level FlightAware ADS-B
11:42AM 38.7146 -106.9670 65° Northeast 497 572 37,000  Level FlightAware ADS-B
11:43AM 38.7433 -106.8870 65° Northeast 499 574 37,000  Level FlightAware ADS-B
11:43AM 38.7725 -106.8050 65° Northeast 499 574 37,000  Level FlightAware ADS-B
11:44AM 38.8140 -106.6890 65° Northeast 499 574 37,000  Level FlightAware
11:44AM 38.8387 -106.6190 66° East 499 574 37,000  Level FlightAware ADS-B
11:45AM 38.8683 -106.5350 66° East 500 575 37,000  Level FlightAware ADS-B
11:45AM 38.9017 -106.4410 65° Northeast 498 573 37,000  Level FlightAware ADS-B
11:46AM 38.9307 -106.3590 66° East 498 573 37,000  Level FlightAware ADS-B
11:46AM 38.9595 -106.2770 66° East 499 574 37,000  Level FlightAware ADS-B
11:47AM 38.9885 -106.1940 66° East 499 574 37,000  Level FlightAware ADS-B
11:48AM 39.0380 -106.0540 65° Northeast 498 573 37,000  Level FlightAware
11:48AM 39.0593 -105.9910 66° East 498 573 37,000  Level FlightAware ADS-B
11:49AM 39.0883 -105.9080 66° East 498 573 37,000  Level FlightAware ADS-B
11:49AM 39.1172 -105.8240 66° East 497 572 37,000  Level FlightAware ADS-B
11:50AM 39.1519 -105.7230 66° East 497 572 37,000  Level FlightAware ADS-B
11:50AM 39.1800 -105.6420 66° East 501 577 37,000  Level FlightAware ADS-B
11:51AM 39.2122 -105.5480 66° East 501 577 37,000  Level FlightAware ADS-B
11:51AM 39.2370 -105.4750 66° East 500 575 37,000  Level FlightAware
11:52AM 39.2482 -105.4420 66° East 499 574 37,000  Level FlightAware ADS-B
11:52AM 39.2774 -105.3560 66° East 500 575 37,000  Level FlightAware ADS-B
11:53AM 39.3070 -105.2690 66° East 498 573 37,000  Level FlightAware ADS-B
11:53AM 39.3352 -105.1850 67° East 499 574 37,000  Level FlightAware ADS-B
11:54AM 39.3632 -105.1020 66° East 498 573 37,000  Level FlightAware ADS-B
11:54AM 39.3922 -105.0170 66° East 497 572 37,000  Level FlightAware ADS-B
11:55AM 39.4206 -104.9320 67° East 498 573 37,000  Level FlightAware ADS-B
11:55AM 39.4511 -104.8410 67° East 497 572 37,000  Level FlightAware ADS-B
11:56AM 39.4786 -104.7580 67° East 498 573 37,000  Level FlightAware ADS-B
11:56AM 39.5065 -104.6740 67° East 497 572 37,000  Level FlightAware ADS-B
11:57AM 39.5340 -104.5910 67° East 497 572 37,000  Level FlightAware ADS-B
11:57AM 39.5624 -104.5050 67° East 497 572 37,000  Level FlightAware ADS-B
11:58AM 39.5909 -104.4180 67° East 498 573 37,000  Level FlightAware ADS-B
11:58AM 39.6204 -104.3280 67° East 499 574 37,000  Level FlightAware ADS-B
11:59AM 39.6483 -104.2430 67° East 501 577 37,000  Level FlightAware ADS-B
11:59AM 39.6770 -104.1560 67° East 501 577 37,000  Level FlightAware ADS-B
12:00PM 39.7046 -104.0710 67° East 502 578 37,000  Level FlightAware ADS-B
12:00PM 39.7323 -103.9850 67° East 503 579 37,000  Level FlightAware ADS-B
12:01PM 39.7595 -103.9010 67° East 504 580 37,000  Level FlightAware ADS-B
12:01PM 39.7866 -103.8170 67° East 506 582 37,000  Level FlightAware ADS-B
12:02PM 39.8136 -103.7320 68° East 507 583 37,000  Level FlightAware ADS-B
12:02PM 39.8409 -103.6480 67° East 507 583 37,000  Level FlightAware ADS-B
12:03PM 39.8681 -103.5620 68° East 507 583 37,000  Level FlightAware ADS-B
12:03PM 39.8954 -103.4770 67° East 507 583 37,000  Level FlightAware ADS-B
12:04PM 39.9265 -103.3790 67° East 507 583 37,000  Level FlightAware ADS-B
12:04PM 39.9532 -103.2940 68° East 506 582 37,000  Level FlightAware ADS-B
12:05PM 39.9799 -103.2090 68° East 507 583 37,000  Level FlightAware ADS-B
12:06PM 40.0083 -103.1190 68° East 505 581 37,000  Level FlightAware ADS-B
12:06PM 40.0351 -103.0330 68° East 505 581 37,000  Level FlightAware ADS-B
12:07PM 40.0617 -102.9480 68° East 505 581 37,000  Level FlightAware ADS-B
12:07PM 40.0883 -102.8630 68° East 505 581 37,000  Level FlightAware ADS-B
12:08PM 40.1146 -102.7780 68° East 505 581 37,000  Level FlightAware ADS-B
12:08PM 40.1410 -102.6930 68° East 506 582 37,000  Level FlightAware ADS-B
12:09PM 40.1676 -102.6070 68° East 507 583 37,000  Level FlightAware ADS-B
12:09PM 40.1956 -102.5150 68° East 508 585 37,000  Level FlightAware ADS-B
12:10PM 40.2216 -102.4300 68° East 509 586 37,000  Level FlightAware ADS-B
12:10PM 40.2480 -102.3440 68° East 509 586 37,000  Level FlightAware ADS-B
12:11PM 40.2762 -102.2510 68° East 510 587 37,000  Level FlightAware ADS-B
12:11PM 40.3024 -102.1650 68° East 511 588 37,000  Level FlightAware ADS-B
12:12PM 40.3291 -102.0770 68° East 512 589 37,000  Level FlightAware ADS-B
12:12PM 40.3567 -101.9850 68° East 513 590 37,000  Level FlightAware ADS-B
12:13PM 40.3830 -101.8980 68° East 513 590 37,000  Level FlightAware ADS-B
12:13PM 40.4099 -101.8080 69° East 513 590 37,000  Level FlightAware ADS-B
12:14PM 40.4362 -101.7200 69° East 512 589 37,000  Level FlightAware ADS-B
12:14PM 40.4621 -101.6330 69° East 512 589 37,000  Level FlightAware ADS-B
12:15PM 40.4893 -101.5410 69° East 512 589 37,000  Level FlightAware ADS-B
12:15PM 40.5151 -101.4530 69° East 510 587 37,000  Level FlightAware ADS-B
12:16PM 40.5408 -101.3660 69° East 509 586 37,000  Level FlightAware ADS-B
12:16PM 40.5674 -101.2750 69° East 509 586 37,000  Level FlightAware ADS-B
12:17PM 40.5958 -101.1780 69° East 509 586 37,000  Level FlightAware ADS-B
12:17PM 40.6224 -101.0860 69° East 509 586 37,000  Level FlightAware ADS-B
12:19PM 40.6694 -100.9192 69° East 507 583 37,000  Level Denver Center
12:20PM 40.7231 -100.7261 70° East 510 587 37,000  Level Denver Center
12:21PM 40.7806 -100.5361 68° East 511 588 37,000  Level Denver Center
12:22PM 40.8269 -100.3706 70° East 507 583 37,000  Level Denver Center
12:23PM 40.8819 -100.1758 69° East 508 585 37,000  Level Denver Center
12:24PM 40.9289 -100.0086 70° East 509 586 37,000  Level Denver Center
12:25PM 40.9842 -99.8106 70° East 510 587 37,000  Level Denver Center
12:26PM 41.0333 -99.6350 70° East 510 587 37,000  Level Denver Center
12:26PM 41.0531 -99.5653 69° East 510 587 37,000  Level Minneapolis Center
12:27PM 41.1008 -99.3878 70° East 511 588 37,000  Level Minneapolis Center
12:33PM 41.3650 -98.3880 70° East 506 582 37,000  Level FlightAware
12:33PM 41.3850 -98.2910 75° East 506 582 37,000  Level FlightAware
12:34PM 41.3850 -98.0720 90° East 503 579 37,000  Level FlightAware
12:35PM 41.3890 -97.9380 88° East 502 578 37,000  Level FlightAware
12:36PM 41.3950 -97.7310 88° East 500 575 37,000  Level FlightAware
12:37PM 41.3980 -97.6140 88° East 500 575 37,000  Level FlightAware
12:38PM 41.4020 -97.4740 88° East 500 575 37,000  Level FlightAware
12:38PM 41.4050 -97.3490 88° East 500 575 37,000  Level FlightAware
12:39PM 41.4090 -97.2080 88° East 500 575 37,000  Level FlightAware
12:40PM 41.4110 -97.1070 88° East 501 577 37,000  Level FlightAware
12:40PM 41.4140 -96.9650 88° East 504 580 37,000  Level FlightAware
12:41PM 41.4170 -96.8200 88° East 504 580 37,000  Level FlightAware
12:42PM 41.4200 -96.6880 88° East 506 582 37,000  Level FlightAware
12:43PM 41.4220 -96.5690 89° East 507 583 37,000  Level FlightAware
12:43PM 41.4240 -96.4340 89° East 507 583 37,000  Level FlightAware
12:44PM 41.4260 -96.3050 89° East 508 585 37,000  Level FlightAware
12:45PM 41.4280 -96.1660 89° East 505 581 37,000  Level FlightAware
12:45PM 41.4300 -96.0340 89° East 504 580 37,000  Level FlightAware
12:46PM 41.4310 -95.9370 89° East 503 579 37,000  Level FlightAware
12:47PM 41.4330 -95.8160 89° East 503 579 37,000  Level FlightAware
12:47PM 41.4350 -95.6600 89° East 503 579 37,000  Level FlightAware
12:48PM 41.4360 -95.4750 90° East 501 577 37,000 180 Level FlightAware
12:49PM 41.4370 -95.3590 89° East 502 578 37,300 420 Climbing FlightAware
12:50PM 41.4380 -95.1920 89° East 508 585 37,700 480 Climbing FlightAware
12:51PM 41.4400 -95.0370 89° East 505 581 38,200 600 Climbing FlightAware
12:52PM 41.4410 -94.8300 90° East 506 582 38,900 420 Climbing FlightAware
12:53PM 41.4410 -94.6930 90° East 508 585 39,000 60 Climbing FlightAware
12:54PM 41.4430 -94.5650 89° East 508 585 39,000  Level FlightAware
12:54PM 41.4410 -94.4100 91° East 512 589 39,000  Level FlightAware
12:55PM 41.4400 -94.2980 91° East 512 589 39,000  Level FlightAware
12:55PM 41.4400 -94.1690 90° East 512 589 39,000  Level FlightAware
12:56PM 41.4400 -94.0750 90° East 510 587 39,000  Level FlightAware
12:57PM 41.4390 -93.8980 90° East 509 586 39,000  Level FlightAware
12:58PM 41.4380 -93.7690 91° East 509 586 39,000  Level FlightAware
12:58PM 41.4420 -93.6060 88° East 509 586 39,000  Level FlightAware
12:59PM 41.4530 -93.4880 83° East 510 587 39,000  Level FlightAware
01:00PM 41.4720 -93.2970 82° East 509 586 39,000  Level FlightAware
01:01PM 41.4840 -93.1660 83° East 510 587 39,000  Level FlightAware
01:02PM 41.4970 -93.0290 83° East 508 585 39,000  Level FlightAware
01:02PM 41.5080 -92.9040 83° East 508 585 39,000  Level FlightAware
01:03PM 41.5200 -92.7740 83° East 506 582 39,000  Level FlightAware
01:04PM 41.5320 -92.6380 83° East 503 579 39,000  Level FlightAware
01:04PM 41.5420 -92.5320 83° East 502 578 39,000  Level FlightAware
01:05PM 41.5530 -92.3980 84° East 502 578 39,000  Level FlightAware
01:06PM 41.5660 -92.2530 83° East 501 577 39,000  Level FlightAware
01:06PM 41.5770 -92.1280 83° East 503 579 39,000  Level FlightAware
01:07PM 41.5870 -92.0050 84° East 506 582 39,000  Level FlightAware
01:08PM 41.5980 -91.8760 83° East 505 581 39,000  Level FlightAware
01:08PM 41.6080 -91.7520 84° East 505 581 39,000  Level FlightAware
01:09PM 41.6180 -91.6240 84° East 506 582 39,000  Level FlightAware
01:10PM 41.6280 -91.4980 84° East 508 585 39,000  Level FlightAware
01:11PM 41.6380 -91.3690 84° East 508 585 39,000  Level FlightAware
01:11PM 41.6500 -91.2130 84° East 506 582 39,000  Level FlightAware
01:12PM 41.6600 -91.0890 84° East 505 581 39,000  Level FlightAware
01:13PM 41.6700 -90.9580 84° East 505 581 39,000  Level FlightAware
01:13PM 41.6800 -90.8210 84° East 505 581 39,000  Level FlightAware
01:14PM 41.6890 -90.6930 85° East 505 581 39,000  Level FlightAware
01:15PM 41.6980 -90.5680 84° East 504 580 39,000  Level FlightAware
01:16PM 41.7070 -90.4410 85° East 504 580 39,000  Level FlightAware
01:16PM 41.7160 -90.3070 85° East 504 580 39,000  Level FlightAware
01:17PM 41.7250 -90.1730 85° East 503 579 39,000  Level FlightAware
01:18PM 41.7320 -90.0670 85° East 502 578 39,000  Level FlightAware
01:18PM 41.7420 -89.9110 85° East 503 579 39,000  Level FlightAware
01:19PM 41.7510 -89.7860 84° East 504 580 39,000  Level FlightAware
01:20PM 41.7620 -89.6070 85° East 506 582 39,000  Level FlightAware
01:21PM 41.7700 -89.4820 85° East 507 583 39,000  Level FlightAware
01:21PM 41.7780 -89.3430 86° East 509 586 39,000  Level FlightAware
01:22PM 41.7860 -89.2120 85° East 511 588 39,000  Level FlightAware
01:23PM 41.7940 -89.0790 85° East 512 589 39,000  Level FlightAware
01:23PM 41.8010 -88.9470 86° East 512 589 39,000  Level FlightAware
01:24PM 41.8080 -88.8140 86° East 513 590 39,000  Level FlightAware
01:25PM 41.8160 -88.6830 85° East 513 590 39,000  Level FlightAware
01:26PM 41.8230 -88.5420 86° East 514 592 39,000  Level FlightAware
01:26PM 41.8300 -88.4100 86° East 515 593 39,000  Level FlightAware
01:27PM 41.8370 -88.2820 86° East 515 593 39,000  Level FlightAware
01:28PM 41.8430 -88.1540 86° East 516 594 39,000  Level FlightAware
01:28PM 41.8500 -88.0060 86° East 517 595 39,000  Level FlightAware
01:29PM 41.8570 -87.8710 86° East 518 596 39,000  Level FlightAware
01:30PM 41.8670 -87.6540 86° East 517 595 39,000  Level FlightAware
01:31PM 41.8730 -87.5200 87° East 517 595 39,000  Level FlightAware
01:32PM 41.8790 -87.3880 86° East 517 595 39,000  Level FlightAware
01:32PM 41.8840 -87.2720 87° East 518 596 39,000  Level FlightAware
01:33PM 41.8900 -87.1220 87° East 519 597 39,000  Level FlightAware
01:34PM 41.8950 -86.9830 87° East 518 596 39,000  Level FlightAware
01:34PM 41.9000 -86.8490 87° East 519 597 39,000  Level FlightAware
01:35PM 41.9050 -86.7190 87° East 518 596 39,000  Level FlightAware
01:36PM 41.9090 -86.5940 87° East 518 596 39,000  Level FlightAware
01:37PM 41.9150 -86.4500 87° East 517 595 39,000  Level FlightAware
01:37PM 41.9190 -86.3220 88° East 516 594 39,000  Level FlightAware
01:38PM 41.9240 -86.1720 87° East 515 593 39,000  Level FlightAware
01:39PM 41.9280 -86.0480 87° East 514 592 39,000  Level FlightAware
01:39PM 41.9320 -85.9110 88° East 514 592 39,000  Level FlightAware
01:40PM 41.9370 -85.7700 87° East 512 589 39,000  Level FlightAware
01:41PM 41.9410 -85.6130 88° East 511 588 39,000  Level FlightAware
01:42PM 41.9450 -85.4610 88° East 508 585 39,000  Level FlightAware
01:42PM 41.9480 -85.3460 88° East 504 580 39,000  Level FlightAware
01:44PM 41.9510 -85.0850 89° East 499 574 39,000  Level FlightAware
01:45PM 41.9500 -84.9020 90° East 496 571 39,000  Level FlightAware
01:45PM 41.9490 -84.7830 91° East 493 567 39,000  Level FlightAware
01:46PM 41.9480 -84.6130 90° East 490 564 39,000  Level FlightAware
01:47PM 41.9470 -84.4530 90° East 489 563 39,000  Level FlightAware
01:48PM 41.9450 -84.2780 91° East 493 567 39,000  Level FlightAware
01:49PM 41.9440 -84.1150 90° East 493 567 39,000  Level FlightAware
01:50PM 41.9420 -83.9410 91° East 492 566 39,000  Level FlightAware
01:51PM 41.9410 -83.8600 91° East 492 566 39,000  Level FlightAware
01:51PM 41.9400 -83.8010 91° East 39,000  Level FlightAware
01:52PM 41.9370 -83.6050 91° East 492 566 39,000  Level FlightAware
01:53PM 41.9340 -83.4660 92° East 492 566 39,000  Level FlightAware
01:53PM 41.9340 -83.3500 90° East 493 567 39,000  Level FlightAware
01:54PM 41.9340 -83.2120 90° East 492 566 39,000  Level FlightAware
01:55PM 41.9330 -83.1670 92° East 493 567 39,000  Level FlightAware
01:55PM 41.9320 -82.9640 90° East 494 568 39,000  Level FlightAware
01:56PM 41.9310 -82.8500 91° East 495 570 39,000  Level FlightAware
01:57PM 41.9300 -82.7080 90° East 497 572 39,000  Level FlightAware
01:57PM 41.9290 -82.6020 91° East 498 573 39,000  Level FlightAware
01:58PM 41.9280 -82.5400 91° East 498 573 39,000  Level FlightAware
01:59PM 41.9250 -82.2860 91° East 498 573 39,000  Level FlightAware
02:00PM 41.9230 -82.1770 91° East 497 572 39,000  Level FlightAware
02:00PM 41.9210 -82.0400 91° East 491 565 39,000  Level FlightAware
02:01PM 41.9190 -81.9020 91° East 487 560 39,000  Level FlightAware
02:02PM 41.9140 -81.7900 93° East 488 562 39,000  Level FlightAware
02:03PM 41.9000 -81.6310 97° East 486 559 39,000  Level FlightAware
02:04PM 41.8840 -81.4540 97° East 485 558 39,000  Level FlightAware
02:04PM 41.8730 -81.3290 97° East 485 558 39,000  Level FlightAware
02:05PM 41.8570 -81.1630 97° East 484 557 39,000  Level FlightAware
02:06PM 41.8440 -81.0240 97° East 485 558 39,000  Level FlightAware
02:07PM 41.8310 -80.8910 97° East 488 562 39,000  Level FlightAware
02:07PM 41.8200 -80.7700 97° East 490 564 39,000  Level FlightAware
02:08PM 41.8090 -80.6640 98° East 490 564 39,000  Level FlightAware
02:09PM 41.7950 -80.5160 97° East 491 565 39,000  Level FlightAware
02:10PM 41.7800 -80.3740 98° East 490 564 39,000  Level FlightAware
02:10PM 41.7690 -80.2560 97° East 489 563 39,000  Level FlightAware
02:11PM 41.7630 -80.2010 98° East 489 563 39,000  Level FlightAware
02:12PM 41.7400 -79.9720 98° East 486 559 39,000  Level FlightAware
02:13PM 41.7270 -79.8550 98° East 485 558 39,000  Level FlightAware
02:13PM 41.7130 -79.7210 98° East 484 557 39,000  Level FlightAware
02:14PM 41.7000 -79.5970 98° East 482 555 39,000  Level FlightAware
02:15PM 41.6880 -79.4890 98° East 483 556 39,000  Level FlightAware
02:15PM 41.6750 -79.3680 98° East 478 550 39,000  Level FlightAware
02:16PM 41.6620 -79.2490 98° East 478 550 39,000  Level FlightAware
02:17PM 41.6490 -79.1330 98° East 477 549 39,000 -360 Level FlightAware
02:17PM 41.6330 -78.9880 98° East 482 555 38,500 -780 Descending FlightAware
02:18PM 41.6190 -78.8690 99° East 485 558 37,900 -1,020 Descending FlightAware
02:19PM 41.6060 -78.7520 98° East 488 562 37,200 -1,020 Descending FlightAware
02:20PM 41.5900 -78.6180 99° East 492 566 36,500 -960 Descending FlightAware
02:20PM 41.5760 -78.4960 99° East 497 572 35,900 -960 Descending FlightAware
02:21PM 41.5590 -78.3570 99° East 504 580 35,200 -960 Descending FlightAware
02:22PM 41.5450 -78.2370 99° East 506 582 34,600 -1,020 Descending FlightAware
02:22PM 41.5300 -78.1110 99° East 505 581 33,900 -1,140 Descending FlightAware
02:23PM 41.5140 -77.9780 99° East 501 577 33,000 -660 Descending FlightAware
02:24PM 41.4980 -77.8640 101° East 499 574 33,000  Level FlightAware
02:24PM 41.4780 -77.7210 101° East 505 581 33,000  Level FlightAware
02:25PM 41.4630 -77.6210 101° East 512 589 33,000 -420 Level FlightAware
02:26PM 41.4410 -77.4690 101° East 510 587 32,500 -960 Descending FlightAware
02:26PM 41.4230 -77.3470 101° East 512 589 31,800 -1,080 Descending FlightAware
02:27PM 41.4030 -77.2090 101° East 512 589 31,000 -2,640 Descending FlightAware
02:28PM 41.3770 -77.0290 101° East 529 609 27,500 -2,280 Descending FlightAware
02:29PM 41.3610 -76.9230 101° East 529 609 27,500 -360 Level FlightAware
02:30PM 41.3370 -76.7770 102° East 516 594 27,000 -480 Descending FlightAware
02:30PM 41.3153 -76.6893 108° East 509 586 27,000 -1,080 Level FlightAware ADS-B
02:30PM 41.2917 -76.6012 110° East 505 581 26,100 -1,680 Descending FlightAware ADS-B
02:31PM 41.2587 -76.4775 110° East 495 570 25,000 -900 Descending FlightAware ADS-B
02:32PM 41.2354 -76.3897 109° East 482 555 25,000  Level FlightAware ADS-B
02:32PM 41.2120 -76.3029 110° East 497 572 25,000 -600 Level FlightAware ADS-B
02:33PM 41.1875 -76.2133 110° East 496 571 24,400 -1,920 Descending FlightAware ADS-B
02:33PM 41.1641 -76.1279 110° East 491 565 23,100 -2,460 Descending FlightAware ADS-B
02:34PM 41.1409 -76.0435 110° East 482 555 21,900 -2,400 Descending FlightAware ADS-B
02:34PM 41.1180 -75.9595 110° East 473 544 20,700 -2,340 Descending FlightAware ADS-B
02:35PM 41.0873 -75.8480 110° East 463 533 19,100 -2,220 Descending FlightAware ADS-B
02:35PM 41.0639 -75.7642 110° East 445 512 18,000 -2,700 Descending FlightAware ADS-B
02:36PM 41.0334 -75.6549 110° East 445 512 15,800 -3,060 Descending FlightAware ADS-B
02:37PM 41.0121 -75.5777 110° East 432 497 14,300 -2,760 Descending FlightAware ADS-B
02:37PM 40.9898 -75.4968 110° East 417 480 12,900 -1,680 Descending FlightAware ADS-B
02:38PM 40.9713 -75.4524 119° Southeast 398 458 12,800  Descending FlightAware ADS-B
02:38PM 40.9480 -75.4280 142° Southeast 369 425 12,900 -240 Climbing FlightAware ADS-B
02:38PM 40.9018 -75.3872 146° Southeast 337 388 12,600 -780 Descending FlightAware ADS-B
02:39PM 40.8872 -75.3701 138° Southeast 330 380 12,300 -1,500 Descending FlightAware ADS-B
02:39PM 40.8747 -75.3367 116° Southeast 327 376 11,800 -1,560 Descending FlightAware ADS-B
02:39PM 40.8742 -75.3059 91° East 322 371 11,400 -1,500 Descending FlightAware ADS-B
02:40PM 40.8800 -75.2660 79° East 313 360 10,900 -1,380 Descending FlightAware ADS-B
02:40PM 40.8776 -75.2207 94° East 314 361 10,400 -1,380 Descending FlightAware ADS-B
02:40PM 40.8734 -75.1916 101° East 314 361 10,000 -1,380 Descending FlightAware ADS-B
02:41PM 40.8664 -75.1476 102° East 307 353 9,500 -1,380 Descending FlightAware ADS-B
02:41PM 40.8593 -75.1031 102° East 304 350 8,900 -1,560 Descending FlightAware ADS-B
02:41PM 40.8512 -75.0555 103° East 299 344 8,200 -1,500 Descending FlightAware ADS-B
02:42PM 40.8429 -75.0087 103° East 295 339 7,600 -1,440 Descending FlightAware ADS-B
02:42PM 40.8367 -74.9730 103° East 294 338 7,100 -1,200 Descending FlightAware ADS-B
02:43PM 40.8319 -74.9457 103° East 285 328 6,900 -420 Descending FlightAware ADS-B
02:43PM 40.8270 -74.9167 103° East 277 319 6,900  Level FlightAware ADS-B
02:43PM 40.8225 -74.8934 104° East 274 315 6,900  Level FlightAware ADS-B
02:43PM 40.8220 -74.8802 93° East 269 310 6,900  Level FlightAware ADS-B
02:43PM 40.8251 -74.8618 77° East 262 302 6,900  Level FlightAware ADS-B
02:44PM 40.8329 -74.8297 72° East 259 298 6,900  Level FlightAware ADS-B
02:44PM 40.8396 -74.8029 72° East 238 274 6,900  Level FlightAware ADS-B
02:44PM 40.8467 -74.7746 72° East 231 266 6,900 -420 Level FlightAware ADS-B
02:45PM 40.8535 -74.7454 73° East 228 262 6,600 -840 Descending FlightAware ADS-B
02:45PM 40.8640 -74.6950 75° East 226 260 6,100 -780 Descending FlightAware
02:46PM 40.8687 -74.6736 74° East 228 262 5,900 -360 Descending FlightAware ADS-B
02:46PM 40.8755 -74.6422 74° East 227 261 5,900  Level FlightAware ADS-B
02:46PM 40.8804 -74.6208 73° East 229 264 5,900  Level FlightAware ADS-B
02:47PM 40.8855 -74.5994 72° East 233 268 5,900  Level FlightAware ADS-B
02:47PM 40.8918 -74.5720 73° East 234 269 5,900  Level FlightAware ADS-B
02:47PM 40.8920 -74.5415 89° East 245 282 5,900  Level FlightAware ADS-B
02:48PM 40.8809 -74.5230 128° Southeast 245 282 5,900  Level FlightAware ADS-B
02:48PM 40.8642 -74.5155 161° South 252 290 5,900  Level FlightAware ADS-B
02:48PM 40.8574 -74.5160 183° South 250 288 5,900  Level FlightAware ADS-B
02:48PM 40.8474 -74.5187 192° South 249 287 5,900  Level FlightAware ADS-B
02:49PM 40.8080 -74.5320 194° South 247 284 5,900  Level FlightAware
02:49PM 40.7938 -74.5364 193° South 249 287 5,900  Level FlightAware ADS-B
02:49PM 40.7715 -74.5436 194° South 249 287 5,900  Level FlightAware ADS-B
02:49PM 40.7522 -74.5504 195° South 248 285 5,900  Level FlightAware ADS-B
02:50PM 40.7314 -74.5576 195° South 248 285 5,900  Level FlightAware ADS-B
02:50PM 40.7031 -74.5676 195° South 253 291 5,900  Level FlightAware ADS-B
02:51PM 40.6785 -74.5760 195° South 251 289 5,900  Level FlightAware ADS-B
02:51PM 40.6593 -74.5826 195° South 254 292 5,900  Level FlightAware ADS-B
02:51PM 40.6397 -74.5893 195° South 255 293 5,900  Level FlightAware ADS-B
02:52PM 40.6050 -74.5927 184° South 252 290 5,900  Level FlightAware ADS-B
02:52PM 40.5977 -74.5891 159° South 251 289 5,900  Level FlightAware ADS-B
02:52PM 40.5795 -74.5797 159° South 257 296 5,900  Level FlightAware ADS-B
02:52PM 40.5604 -74.5693 158° South 252 290 5,900  Level FlightAware ADS-B
02:53PM 40.5491 -74.5632 158° South 248 285 5,900  Level FlightAware ADS-B
02:53PM 40.5326 -74.5543 158° South 248 285 5,900  Level FlightAware ADS-B
02:53PM 40.5273 -74.5508 153° Southeast 251 289 5,900  Level FlightAware ADS-B
02:53PM 40.5244 -74.5483 147° Southeast 251 289 5,900 -780 Level FlightAware ADS-B
02:53PM 40.5207 -74.5443 141° Southeast 250 288 5,800 -720 Descending FlightAware ADS-B
02:53PM 40.5170 -74.5394 135° Southeast 249 287 5,800 -1,200 Level FlightAware ADS-B
02:53PM 40.5049 -74.5203 130° Southeast 245 282 5,400 -1,320 Descending FlightAware ADS-B
02:54PM 40.4971 -74.5076 129° Southeast 245 282 5,200 -1,380 Descending FlightAware ADS-B
02:54PM 40.4891 -74.4945 129° Southeast 243 280 4,900 -1,440 Descending FlightAware ADS-B
02:54PM 40.4785 -74.4769 128° Southeast 241 277 4,600 -1,140 Descending FlightAware ADS-B
02:54PM 40.4675 -74.4585 128° Southeast 234 269 4,300 -960 Descending FlightAware ADS-B
02:55PM 40.4530 -74.4339 128° Southeast 222 255 4,000 -600 Descending FlightAware ADS-B
02:55PM 40.4424 -74.4156 127° Southeast 204 235 3,900 -240 Descending FlightAware ADS-B
02:55PM 40.4383 -74.4052 117° Southeast 194 223 3,900 -420 Level FlightAware ADS-B
02:55PM 40.4373 -74.3984 101° East 191 220 3,800 -1,200 Descending FlightAware ADS-B
02:55PM 40.4374 -74.3937 88° East 186 214 3,700 -1,260 Descending FlightAware ADS-B
02:56PM 40.4500 -74.3600 64° Northeast 188 216 3,000 -780 Descending FlightAware
02:56PM 40.4620 -74.3330 60° Northeast 183 211 2,900 -180 Descending FlightAware
02:57PM 40.4690 -74.3170 60° Northeast 185 213 2,900  Level FlightAware
02:57PM 40.4750 -74.3070 52° Northeast 183 211 2,900  Level FlightAware
02:57PM 40.4940 -74.2900 34° Northeast 179 206 2,900  Level FlightAware
02:57PM 40.5070 -74.2810 28° Northeast 178 205 2,900  Level FlightAware
02:58PM 40.5316 -74.2668 24° Northeast 176 203 2,900  Level FlightAware ADS-B
02:58PM 40.5429 -74.2595 26° Northeast 181 208 2,900 -420 Level FlightAware ADS-B
02:59PM 40.5558 -74.2513 26° Northeast 182 209 2,700 -1,020 Descending FlightAware ADS-B
02:59PM 40.5800 -74.2358 26° Northeast 186 214 2,100 -1,080 Descending FlightAware ADS-B
02:59PM 40.5827 -74.2340 27° Northeast 186 214 2,100 -840 Level FlightAware ADS-B
03:00PM 40.6027 -74.2209 26° Northeast 188 216 1,700 -720 Descending FlightAware ADS-B
03:00PM 40.6000 -74.2167 119° Southeast 186 214 1,800 -1,080 Climbing New York TRACON
03:00PM 40.6276 -74.2055 25° Northeast 188 216 1,100 -1,200 Descending FlightAware ADS-B
03:00PM 40.6349 -74.2013 24° Northeast 154 177 900 -480 Descending FlightAware ADS-B
03:01PM 40.6500 -74.2000 14° North 156 180 900 -840 Level New York TRACON
03:01PM 40.6542 -74.1890 26° Northeast 154 177 500 -1,320 Descending FlightAware ADS-B
03:01PM 40.6601 -74.1852 26° Northeast 162 186 400 -780 Descending FlightAware ADS-B
03:03PM 40.6833 -74.1667 119° Southeast  Level FlightAware Approximate
03:06PM 40.6833 -74.1667 119° Southeast  Level FlightAware Approximate
03:10PM 40.6925 -74.1687 119° Southeast  Level Estimated
03:11PM 40.6925 -74.1687 119° Southeast  Level Estimated
03:12PM 40.6925 -74.1687 119° Southeast  Level Estimated